Placita, New Mexico
Current Conditions -  °F | °C
As of 1:35 PM on Friday 21 Nov 2014 (Local Time) from KSKX Reporting Station
Clear Clear  
Wind Chill: 40°   Ceiling: Unl
Heat Index: 45°   Visibility: 10mi
Dew Point: 21°   Wind: 8mph
Humidity: 39%   Direction: 270°W
Pressure: 30.05"   Gusts: NA
Location:  36.1892°N, 105.688°W
Report Text: KSKX 212035Z AUTO 27007KT 10SM CLR 07/M06 A3005 RMK AO1
Loading
Personal Weather Stations






























Interactive Weather Map New forecast layout! Learn more

10-Day Weather Forecast

Advertisements
Track Severe Weather on mobile